createdAt,value
2019-02-09T00:00:18.348Z,0.00
2019-02-09T00:01:18.339Z,0.00
2019-02-09T00:02:18.317Z,0.00
2019-02-09T00:03:18.324Z,0.00
2019-02-09T00:04:18.269Z,0.00
2019-02-09T00:05:18.268Z,0.00
2019-02-09T00:06:18.220Z,0.00
2019-02-09T00:07:18.190Z,0.00
2019-02-09T00:08:18.162Z,0.00
2019-02-09T00:09:18.145Z,0.00
2019-02-09T00:10:18.119Z,0.00
2019-02-09T00:11:18.093Z,0.00
2019-02-09T00:12:18.075Z,0.00
2019-02-09T00:13:18.071Z,0.00
2019-02-09T00:14:18.032Z,0.00
2019-02-09T00:15:18.056Z,0.00
2019-02-09T00:16:18.006Z,0.00
2019-02-09T00:17:17.980Z,0.00
2019-02-09T00:18:17.965Z,0.00
2019-02-09T00:19:17.931Z,0.00
2019-02-09T00:20:17.900Z,0.00
2019-02-09T00:21:17.871Z,0.00
2019-02-09T00:22:17.850Z,0.00
2019-02-09T00:23:17.841Z,0.00
2019-02-09T00:24:17.801Z,0.00
2019-02-09T00:25:17.784Z,0.00
2019-02-09T00:26:17.749Z,0.00
2019-02-09T00:27:17.741Z,0.00
2019-02-09T00:28:17.704Z,0.00
2019-02-09T00:29:17.694Z,0.00
2019-02-09T00:30:17.661Z,0.00
2019-02-09T00:31:17.636Z,0.00
2019-02-09T00:32:17.625Z,0.00
2019-02-09T00:33:17.607Z,0.00
2019-02-09T00:34:17.596Z,0.00
2019-02-09T00:35:17.567Z,0.00
2019-02-09T00:36:17.524Z,0.00
2019-02-09T00:37:17.509Z,0.00
2019-02-09T00:38:17.484Z,0.00
2019-02-09T00:39:17.468Z,0.00
2019-02-09T00:40:17.439Z,0.00
2019-02-09T00:41:17.401Z,0.00
2019-02-09T00:42:17.390Z,0.00
2019-02-09T00:43:17.356Z,0.00
2019-02-09T00:44:17.334Z,0.00
2019-02-09T00:45:17.312Z,0.00
2019-02-09T00:46:17.296Z,0.00
2019-02-09T00:47:17.262Z,0.00
2019-02-09T00:48:17.241Z,0.00
2019-02-09T00:49:17.237Z,0.00
2019-02-09T00:50:17.221Z,0.00
2019-02-09T00:51:17.184Z,0.00
2019-02-09T00:52:17.161Z,0.00
2019-02-09T00:53:17.132Z,0.00
2019-02-09T00:54:17.121Z,0.00
2019-02-09T00:55:17.080Z,0.00
2019-02-09T00:56:17.067Z,0.00
2019-02-09T00:57:17.040Z,0.00
2019-02-09T00:58:17.011Z,0.00
2019-02-09T00:59:17.059Z,0.00
2019-02-09T01:00:16.965Z,0.00
2019-02-09T01:01:16.945Z,0.00
2019-02-09T01:02:16.916Z,0.00
2019-02-09T01:03:16.909Z,0.00
2019-02-09T01:04:16.927Z,0.00
2019-02-09T01:05:16.858Z,0.00
2019-02-09T01:06:16.831Z,0.00
2019-02-09T01:07:16.810Z,0.00
2019-02-09T01:08:16.794Z,0.00
2019-02-09T01:09:16.760Z,0.00
2019-02-09T01:10:16.737Z,0.00
2019-02-09T01:11:16.714Z,0.00
2019-02-09T01:12:16.686Z,0.00
2019-02-09T01:13:16.694Z,0.00
2019-02-09T01:14:16.650Z,0.00
2019-02-09T01:15:16.621Z,0.00
2019-02-09T01:16:16.621Z,0.00
2019-02-09T01:17:16.578Z,0.00
2019-02-09T01:18:16.549Z,0.00
2019-02-09T01:19:16.523Z,0.00
2019-02-09T01:20:16.498Z,0.00
2019-02-09T01:21:16.498Z,0.00
2019-02-09T01:22:16.467Z,0.00
2019-02-09T01:23:16.454Z,0.00
2019-02-09T01:24:16.414Z,0.00
2019-02-09T01:25:16.384Z,0.00
2019-02-09T01:26:16.384Z,0.00
2019-02-09T01:27:16.346Z,0.00
2019-02-09T01:28:16.316Z,0.00
2019-02-09T01:29:16.309Z,0.00
2019-02-09T01:30:16.271Z,0.00
2019-02-09T01:31:16.576Z,0.00
2019-02-09T01:32:16.223Z,0.00
2019-02-09T01:33:16.205Z,0.00
2019-02-09T01:34:16.182Z,0.00
2019-02-09T01:35:16.174Z,0.00
2019-02-09T01:36:16.207Z,0.00
2019-02-09T01:37:16.110Z,0.00
2019-02-09T01:38:16.085Z,0.00
2019-02-09T01:39:16.733Z,0.00
2019-02-09T01:40:16.044Z,0.00
2019-02-09T01:41:16.030Z,0.00
2019-02-09T01:42:15.988Z,0.00
2019-02-09T01:43:16.378Z,0.00
2019-02-09T01:44:15.996Z,0.00
2019-02-09T01:45:15.929Z,0.00
2019-02-09T01:46:15.926Z,0.00
2019-02-09T01:47:15.931Z,0.00
2019-02-09T01:48:15.875Z,0.00
2019-02-09T01:49:15.860Z,0.00
2019-02-09T01:50:15.866Z,0.00
2019-02-09T01:51:15.782Z,0.00
2019-02-09T01:52:15.758Z,0.00
2019-02-09T01:53:15.760Z,0.00
2019-02-09T01:54:15.724Z,0.00
2019-02-09T01:55:15.702Z,0.00
2019-02-09T01:56:15.682Z,0.00
2019-02-09T01:57:15.643Z,0.00
2019-02-09T01:58:15.634Z,0.00
2019-02-09T01:59:15.604Z,0.00
2019-02-09T02:00:15.624Z,0.00
2019-02-09T02:01:15.569Z,0.00
2019-02-09T02:02:15.526Z,0.00
2019-02-09T02:03:15.510Z,0.00
2019-02-09T02:04:15.498Z,0.00
2019-02-09T02:05:15.491Z,0.00
2019-02-09T02:06:15.431Z,0.00
2019-02-09T02:07:15.441Z,0.00
2019-02-09T02:08:15.408Z,0.00
2019-02-09T02:09:15.391Z,0.00
2019-02-09T02:10:15.347Z,0.00
2019-02-09T02:11:15.334Z,0.00
2019-02-09T02:12:15.309Z,0.00
2019-02-09T02:16:19.453Z,0.00
2019-02-09T02:17:19.423Z,0.00
2019-02-09T02:19:14.777Z,0.00
2019-02-09T02:20:14.763Z,0.00
2019-02-09T02:21:14.720Z,0.00
2019-02-09T02:22:14.704Z,0.00
2019-02-09T02:23:14.675Z,0.00
2019-02-09T02:24:14.650Z,0.00
2019-02-09T02:25:14.623Z,0.00
2019-02-09T02:26:14.603Z,0.00
2019-02-09T02:27:14.587Z,0.00
2019-02-09T02:28:14.575Z,0.00
2019-02-09T02:29:14.534Z,0.00
2019-02-09T02:30:22.158Z,0.00
2019-02-09T02:31:14.540Z,0.00
2019-02-09T02:32:14.474Z,0.00
2019-02-09T02:33:14.449Z,0.00
2019-02-09T02:34:14.420Z,0.00
2019-02-09T02:35:14.402Z,0.00
2019-02-09T02:36:14.379Z,0.00
2019-02-09T02:37:14.359Z,0.00
2019-02-09T02:38:14.325Z,0.00
2019-02-09T02:39:14.297Z,0.00
2019-02-09T02:40:14.290Z,0.00
2019-02-09T02:41:14.253Z,0.00
2019-02-09T02:42:14.250Z,0.00
2019-02-09T02:43:14.222Z,0.00
2019-02-09T02:44:14.205Z,0.00
2019-02-09T02:45:14.163Z,0.00
2019-02-09T02:46:14.165Z,0.00
2019-02-09T02:47:14.132Z,0.00
2019-02-09T02:48:14.133Z,0.00
2019-02-09T02:49:14.075Z,0.00
2019-02-09T02:50:14.050Z,0.00
2019-02-09T02:51:14.043Z,0.00
2019-02-09T02:52:14.009Z,0.00
2019-02-09T02:53:13.986Z,0.00
2019-02-09T02:54:13.954Z,0.00
2019-02-09T02:55:13.932Z,0.00
2019-02-09T02:56:13.902Z,0.00
2019-02-09T02:57:13.898Z,0.00
2019-02-09T02:58:13.862Z,0.00
2019-02-09T02:59:13.835Z,0.00
2019-02-09T03:00:13.812Z,0.00
2019-02-09T03:01:13.794Z,0.00
2019-02-09T03:02:13.806Z,0.00
2019-02-09T03:03:13.751Z,0.00
2019-02-09T03:04:13.744Z,0.00
2019-02-09T03:05:13.746Z,0.00
2019-02-09T03:06:13.665Z,0.00
2019-02-09T03:07:13.663Z,0.00
2019-02-09T03:08:13.618Z,0.00
2019-02-09T03:09:13.594Z,0.00
2019-02-09T03:10:13.587Z,0.00
2019-02-09T03:11:13.571Z,0.00
2019-02-09T03:12:13.539Z,0.00
2019-02-09T03:13:13.510Z,0.00
2019-02-09T03:14:13.492Z,0.00
2019-02-09T03:15:13.454Z,0.00
2019-02-09T03:16:13.441Z,0.00
2019-02-09T03:17:13.409Z,0.00
2019-02-09T03:18:13.415Z,0.00
2019-02-09T03:19:13.407Z,0.00
2019-02-09T03:20:13.358Z,0.00
2019-02-09T03:21:13.338Z,0.00
2019-02-09T03:22:13.290Z,0.00
2019-02-09T03:23:13.271Z,0.00
2019-02-09T03:24:13.283Z,0.00
2019-02-09T03:25:13.237Z,0.00
2019-02-09T03:26:13.235Z,0.00
2019-02-09T03:27:13.186Z,0.00
2019-02-09T03:28:13.167Z,0.00
2019-02-09T03:29:13.137Z,0.00
2019-02-09T03:30:13.115Z,0.00
2019-02-09T03:31:13.089Z,0.00
2019-02-09T03:32:13.086Z,0.00
2019-02-09T03:33:13.069Z,0.00
2019-02-09T03:34:13.017Z,0.00
2019-02-09T03:35:12.997Z,0.00
2019-02-09T03:36:12.979Z,0.00
2019-02-09T03:37:12.957Z,0.00
2019-02-09T03:38:12.929Z,0.00
2019-02-09T03:39:12.935Z,0.00
2019-02-09T03:40:12.881Z,0.00
2019-02-09T03:41:12.861Z,0.00
2019-02-09T03:42:12.830Z,0.00
2019-02-09T03:43:12.808Z,0.00
2019-02-09T03:44:12.787Z,0.00
2019-02-09T03:45:12.762Z,0.00
2019-02-09T03:46:12.743Z,0.00
2019-02-09T03:47:12.713Z,0.00
2019-02-09T03:48:12.694Z,0.00
2019-02-09T03:49:12.711Z,0.00
2019-02-09T03:50:12.659Z,0.00
2019-02-09T03:51:12.625Z,0.00
2019-02-09T03:52:12.603Z,0.00
2019-02-09T03:53:12.566Z,0.00
2019-02-09T03:54:12.544Z,0.00
2019-02-09T03:55:12.569Z,0.00
2019-02-09T03:56:12.497Z,0.00
2019-02-09T03:57:12.487Z,0.00
2019-02-09T03:58:12.468Z,0.00
2019-02-09T03:59:12.438Z,0.00
2019-02-09T04:00:12.405Z,0.00
2019-02-09T04:01:12.382Z,0.00
2019-02-09T04:02:12.390Z,0.00
2019-02-09T04:03:12.344Z,0.00
2019-02-09T04:04:12.319Z,0.00
2019-02-09T04:05:12.288Z,0.00
2019-02-09T04:06:12.280Z,0.00
2019-02-09T04:07:12.244Z,0.00
2019-02-09T04:08:12.225Z,0.00
2019-02-09T04:09:12.201Z,0.00
2019-02-09T04:10:12.171Z,0.00
2019-02-09T04:11:12.172Z,0.00
2019-02-09T04:12:12.133Z,0.00
2019-02-09T04:13:12.109Z,0.00
2019-02-09T04:14:12.112Z,0.00
2019-02-09T04:15:12.077Z,0.00
2019-02-09T04:16:12.031Z,0.00
2019-02-09T04:17:12.005Z,0.00
2019-02-09T04:18:12.017Z,0.00
2019-02-09T04:19:11.987Z,0.00
2019-02-09T04:20:11.943Z,0.00
2019-02-09T04:21:11.929Z,0.00
2019-02-09T04:22:11.914Z,0.00
2019-02-09T04:23:11.873Z,0.00
2019-02-09T04:24:11.849Z,0.00
2019-02-09T04:25:11.855Z,0.00
2019-02-09T04:26:11.822Z,0.00
2019-02-09T04:27:11.772Z,0.00
2019-02-09T04:28:11.761Z,0.00
2019-02-09T04:29:11.766Z,0.00
2019-02-09T04:30:11.722Z,0.00
2019-02-09T04:31:11.711Z,0.00
2019-02-09T04:32:11.691Z,0.00
2019-02-09T04:33:11.646Z,0.00
2019-02-09T04:34:11.676Z,0.00
2019-02-09T04:35:11.597Z,0.00
2019-02-09T04:36:11.616Z,0.00
2019-02-09T04:37:11.576Z,0.00
2019-02-09T04:38:11.542Z,0.00
2019-02-09T04:39:11.500Z,0.00
2019-02-09T04:40:11.484Z,0.00
2019-02-09T04:41:11.456Z,0.00
2019-02-09T04:42:11.427Z,0.00
2019-02-09T04:43:11.438Z,0.00
2019-02-09T04:44:11.404Z,0.00
2019-02-09T04:45:11.369Z,0.00
2019-02-09T04:46:11.352Z,0.00
2019-02-09T04:47:11.366Z,0.00
2019-02-09T04:48:11.332Z,0.00
2019-02-09T04:49:11.276Z,0.00
2019-02-09T04:50:11.241Z,0.00
2019-02-09T04:51:11.222Z,0.00
2019-02-09T04:52:11.194Z,0.00
2019-02-09T04:53:11.182Z,0.00
2019-02-09T04:54:11.154Z,0.00
2019-02-09T04:55:11.126Z,0.00
2019-02-09T04:56:11.103Z,0.00
2019-02-09T04:57:11.194Z,0.00
2019-02-09T04:58:11.054Z,0.00
2019-02-09T04:59:11.050Z,0.00
2019-02-09T05:00:11.039Z,0.00
2019-02-09T05:01:14.065Z,0.00
2019-02-09T05:02:11.002Z,0.00
2019-02-09T05:03:10.961Z,0.00
2019-02-09T05:04:10.928Z,0.00
2019-02-09T05:05:10.890Z,0.00
2019-02-09T05:06:10.872Z,0.00
2019-02-09T05:07:10.876Z,0.00
2019-02-09T05:08:10.820Z,0.00
2019-02-09T05:09:10.836Z,0.00
2019-02-09T05:10:10.797Z,0.00
2019-02-09T05:11:10.746Z,0.00
2019-02-09T05:12:10.732Z,0.00
2019-02-09T05:13:10.721Z,0.00
2019-02-09T05:14:10.687Z,0.00
2019-02-09T05:15:10.660Z,0.00
2019-02-09T05:16:10.638Z,0.00
2019-02-09T05:17:10.609Z,0.00
2019-02-09T05:18:10.589Z,0.00
2019-02-09T05:19:10.567Z,0.00
2019-02-09T05:20:10.543Z,0.00
2019-02-09T05:21:10.523Z,0.00
2019-02-09T05:22:10.520Z,0.00
2019-02-09T05:23:10.478Z,0.00
2019-02-09T05:24:10.473Z,0.00
2019-02-09T05:25:10.445Z,0.00
2019-02-09T05:26:10.401Z,0.00
2019-02-09T05:27:10.393Z,0.00
2019-02-09T05:28:10.355Z,0.00
2019-02-09T05:29:10.362Z,0.00
2019-02-09T05:30:10.303Z,0.00
2019-02-09T05:31:10.298Z,0.00
2019-02-09T05:32:10.255Z,0.00
2019-02-09T05:33:10.240Z,0.00
2019-02-09T05:34:10.228Z,0.00
2019-02-09T05:35:10.190Z,0.00
2019-02-09T05:36:10.167Z,0.00
2019-02-09T05:37:10.151Z,0.00
2019-02-09T05:38:10.119Z,0.00
2019-02-09T05:39:10.109Z,0.00
2019-02-09T05:40:10.071Z,0.00
2019-02-09T05:41:10.060Z,0.00
2019-02-09T05:42:10.048Z,0.00
2019-02-09T05:43:10.011Z,0.00
2019-02-09T05:44:09.980Z,0.00
2019-02-09T05:45:09.992Z,0.00
2019-02-09T05:46:09.982Z,0.00
2019-02-09T05:47:09.916Z,0.00
2019-02-09T05:48:09.929Z,0.00
2019-02-09T05:49:09.860Z,0.00
2019-02-09T05:50:09.856Z,0.00
2019-02-09T05:51:09.846Z,0.00
2019-02-09T05:52:09.795Z,0.00
2019-02-09T05:53:09.798Z,0.00
2019-02-09T05:54:09.770Z,0.00
2019-02-09T05:55:09.723Z,0.00
2019-02-09T05:56:09.708Z,0.00
2019-02-09T05:57:09.676Z,0.00
2019-02-09T05:58:09.673Z,0.00
2019-02-09T05:59:09.637Z,0.00
2019-02-09T06:00:09.641Z,0.00
2019-02-09T06:01:09.622Z,0.00
2019-02-09T06:02:09.573Z,0.00
2019-02-09T06:03:09.546Z,0.00
2019-02-09T06:04:09.534Z,0.00
2019-02-09T06:05:09.508Z,0.00
2019-02-09T06:06:09.463Z,0.00
2019-02-09T06:07:09.457Z,0.00
2019-02-09T06:08:09.445Z,0.00
2019-02-09T06:09:09.396Z,0.00
2019-02-09T06:10:09.371Z,0.00
2019-02-09T06:11:09.354Z,0.00
2019-02-09T06:12:09.355Z,0.00
2019-02-09T06:13:09.314Z,0.00
2019-02-09T06:14:09.318Z,0.00
2019-02-09T06:15:09.254Z,0.00
2019-02-09T06:16:09.245Z,0.00
2019-02-09T06:17:09.239Z,0.00
2019-02-09T06:18:09.201Z,0.00
2019-02-09T06:19:09.158Z,0.00
2019-02-09T06:20:09.143Z,0.00
2019-02-09T06:21:09.124Z,0.00
2019-02-09T06:22:09.108Z,0.00
2019-02-09T06:23:09.072Z,0.00
2019-02-09T06:24:09.052Z,0.00
2019-02-09T06:25:09.020Z,0.00
2019-02-09T06:26:08.994Z,0.00
2019-02-09T06:27:09.009Z,0.00
2019-02-09T06:28:08.970Z,0.00
2019-02-09T06:29:08.940Z,0.00
2019-02-09T06:30:08.908Z,0.00
2019-02-09T06:31:08.901Z,0.00
2019-02-09T06:32:08.905Z,0.00
2019-02-09T06:33:08.838Z,0.00
2019-02-09T06:34:08.842Z,0.00
2019-02-09T06:35:08.801Z,4.00
2019-02-09T06:36:08.782Z,0.00
2019-02-09T06:37:08.759Z,0.00
2019-02-09T06:38:08.746Z,0.00
2019-02-09T06:39:08.702Z,4.00
2019-02-09T06:40:08.671Z,4.00
2019-02-09T06:41:08.672Z,4.00
2019-02-09T06:42:08.650Z,12.00
2019-02-09T06:43:08.613Z,12.00
2019-02-09T06:44:08.596Z,16.00
2019-02-09T06:45:08.558Z,16.00
2019-02-09T06:46:08.537Z,20.00
2019-02-09T06:47:08.515Z,28.00
2019-02-09T06:48:08.501Z,24.00
2019-02-09T06:49:08.506Z,32.00
2019-02-09T06:50:08.435Z,32.00
2019-02-09T06:51:08.423Z,40.00
2019-02-09T06:52:08.398Z,44.00
2019-02-09T06:53:08.366Z,52.00
2019-02-09T06:54:08.349Z,60.00
2019-02-09T06:55:08.343Z,64.00
2019-02-09T06:56:08.298Z,76.00
2019-02-09T06:57:08.275Z,80.00
2019-02-09T06:58:08.261Z,88.00
2019-02-09T06:59:08.235Z,100.00
2019-02-09T07:00:08.217Z,108.00
2019-02-09T07:01:08.186Z,120.00
2019-02-09T07:02:08.176Z,132.00
2019-02-09T07:03:08.130Z,140.00
2019-02-09T07:04:08.111Z,144.00
2019-02-09T07:05:08.089Z,148.00
2019-02-09T07:06:08.083Z,152.00
2019-02-09T07:07:08.048Z,156.00
2019-02-09T07:08:08.085Z,156.00
2019-02-09T07:09:07.990Z,152.00
2019-02-09T07:10:07.974Z,116.00
2019-02-09T07:11:07.949Z,76.00
2019-02-09T07:12:07.921Z,68.00
2019-02-09T07:13:07.903Z,68.00
2019-02-09T07:14:07.909Z,88.00
2019-02-09T07:15:07.887Z,180.00
2019-02-09T07:16:07.824Z,152.00
2019-02-09T07:17:07.796Z,132.00
2019-02-09T07:18:07.773Z,168.00
2019-02-09T07:19:07.767Z,180.00
2019-02-09T07:20:07.732Z,252.00
2019-02-09T07:21:07.720Z,268.00
2019-02-09T07:22:07.692Z,300.00
2019-02-09T07:23:07.664Z,304.00
2019-02-09T07:24:07.639Z,308.00
2019-02-09T07:25:07.615Z,308.00
2019-02-09T07:26:07.588Z,376.00
2019-02-09T07:27:07.561Z,436.00
2019-02-09T07:28:07.589Z,424.00
2019-02-09T07:29:07.515Z,420.00
2019-02-09T07:30:07.541Z,448.00
2019-02-09T07:31:07.470Z,432.00
2019-02-09T07:32:07.456Z,444.00
2019-02-09T07:33:07.422Z,448.00
2019-02-09T07:34:07.422Z,456.00
2019-02-09T07:35:07.386Z,464.00
2019-02-09T07:36:07.370Z,476.00
2019-02-09T07:37:07.339Z,492.00
2019-02-09T07:38:07.325Z,504.00
2019-02-09T07:39:07.282Z,516.00
2019-02-09T07:40:07.260Z,528.00
2019-02-09T07:41:07.241Z,544.00
2019-02-09T07:42:07.227Z,560.00
2019-02-09T07:43:07.194Z,576.00
2019-02-09T07:44:07.161Z,608.00
2019-02-09T07:45:07.146Z,636.00
2019-02-09T07:46:07.136Z,668.00
2019-02-09T07:47:07.103Z,808.00
2019-02-09T07:48:07.062Z,856.00
2019-02-09T07:49:07.051Z,828.00
2019-02-09T07:50:07.017Z,972.00
2019-02-09T07:51:06.997Z,1156.00
2019-02-09T07:52:06.998Z,840.00
2019-02-09T07:53:06.964Z,748.00
2019-02-09T07:54:06.926Z,712.00
2019-02-09T07:55:06.929Z,668.00
2019-02-09T07:56:06.912Z,668.00
2019-02-09T07:57:06.856Z,708.00
2019-02-09T07:58:06.825Z,768.00
2019-02-09T07:59:06.814Z,804.00
2019-02-09T08:00:06.783Z,840.00
2019-02-09T08:01:06.796Z,812.00
2019-02-09T08:02:06.757Z,804.00
2019-02-09T08:03:06.722Z,812.00
2019-02-09T08:04:06.688Z,836.00
2019-02-09T08:05:06.678Z,872.00
2019-02-09T08:06:06.668Z,992.00
2019-02-09T08:07:06.612Z,1340.00
2019-02-09T08:08:06.615Z,1344.00
2019-02-09T08:09:06.614Z,1460.00
2019-02-09T08:10:06.557Z,1376.00
2019-02-09T08:11:09.218Z,924.00
2019-02-09T08:12:06.513Z,940.00
2019-02-09T08:13:06.521Z,1120.00
2019-02-09T08:14:06.449Z,1088.00
2019-02-09T08:15:06.454Z,1048.00
2019-02-09T08:16:06.419Z,984.00
2019-02-09T08:17:06.376Z,1004.00
2019-02-09T08:18:06.351Z,1020.00
2019-02-09T08:19:06.333Z,1108.00
2019-02-09T08:20:06.322Z,1132.00
2019-02-09T08:21:06.303Z,1160.00
2019-02-09T08:22:06.301Z,1152.00
2019-02-09T08:23:06.235Z,1152.00
2019-02-09T08:24:07.290Z,1156.00
2019-02-09T08:25:06.186Z,1160.00
2019-02-09T08:26:06.186Z,1164.00
2019-02-09T08:27:06.169Z,1172.00
2019-02-09T08:28:06.122Z,1132.00
2019-02-09T08:29:06.135Z,1192.00
2019-02-09T08:30:06.082Z,1192.00
2019-02-09T08:31:06.071Z,1200.00
2019-02-09T08:32:12.586Z,1204.00
2019-02-09T08:33:06.015Z,1220.00
2019-02-09T08:34:05.976Z,1232.00
2019-02-09T08:35:05.978Z,1304.00
2019-02-09T08:36:05.962Z,1288.00
2019-02-09T08:37:05.942Z,1220.00
2019-02-09T08:38:05.929Z,1304.00
2019-02-09T08:39:05.895Z,1220.00
2019-02-09T08:40:05.839Z,1264.00
2019-02-09T08:41:05.844Z,1264.00
2019-02-09T08:42:05.801Z,1276.00
2019-02-09T08:43:05.868Z,1272.00
2019-02-09T08:44:05.738Z,1264.00
2019-02-09T08:45:05.724Z,1272.00
2019-02-09T08:46:05.712Z,1436.00
2019-02-09T08:47:05.670Z,1964.00
2019-02-09T08:48:05.655Z,2188.00
2019-02-09T08:49:05.632Z,2128.00
2019-02-09T08:50:05.624Z,1852.00
2019-02-09T08:51:05.586Z,1572.00
2019-02-09T08:52:05.549Z,2140.00
2019-02-09T08:53:05.540Z,2180.00
2019-02-09T08:54:05.563Z,2100.00
2019-02-09T08:55:05.482Z,2024.00
2019-02-09T08:56:05.968Z,1952.00
2019-02-09T08:57:05.450Z,1784.00
2019-02-09T08:58:05.410Z,2104.00
2019-02-09T08:59:05.392Z,3272.00
2019-02-09T09:00:05.665Z,3960.00
2019-02-09T09:01:05.346Z,2680.00
2019-02-09T09:02:05.321Z,2300.00
2019-02-09T09:03:05.301Z,2192.00
2019-02-09T09:04:05.277Z,1668.00
2019-02-09T09:05:09.720Z,1384.00
2019-02-09T09:06:05.243Z,1276.00
2019-02-09T09:07:05.203Z,1404.00
2019-02-09T09:08:05.205Z,1384.00
2019-02-09T09:09:05.171Z,1396.00
2019-02-09T09:10:05.254Z,1420.00
2019-02-09T09:11:05.112Z,1436.00
2019-02-09T09:12:05.100Z,1448.00
2019-02-09T09:13:08.439Z,1436.00
2019-02-09T09:14:05.141Z,1420.00
2019-02-09T09:15:05.032Z,1436.00
2019-02-09T09:16:05.002Z,1484.00
2019-02-09T09:17:05.004Z,1520.00
2019-02-09T09:18:04.965Z,1536.00
2019-02-09T09:19:04.937Z,1836.00
2019-02-09T09:20:04.910Z,2108.00
2019-02-09T09:21:04.898Z,3048.00
2019-02-09T09:22:04.899Z,4008.00
2019-02-09T09:23:04.993Z,3300.00
2019-02-09T09:24:04.873Z,2384.00
2019-02-09T09:25:05.392Z,2356.00
2019-02-09T09:26:04.769Z,3068.00
2019-02-09T09:27:04.763Z,3060.00
2019-02-09T09:28:04.735Z,2836.00
2019-02-09T09:29:04.714Z,2880.00
2019-02-09T09:30:04.688Z,2748.00
2019-02-09T09:31:04.676Z,2796.00
2019-02-09T09:32:04.636Z,2852.00
2019-02-09T09:33:04.622Z,2584.00
2019-02-09T09:34:04.594Z,2340.00
2019-02-09T09:35:04.565Z,2204.00
2019-02-09T09:36:04.557Z,2316.00
2019-02-09T09:37:04.541Z,2504.00
2019-02-09T09:38:04.536Z,2276.00
2019-02-09T09:39:04.500Z,2332.00
2019-02-09T09:40:04.464Z,2500.00
2019-02-09T09:41:04.465Z,2220.00
2019-02-09T09:42:04.426Z,2948.00
2019-02-09T09:43:04.398Z,4528.00
2019-02-09T09:44:04.377Z,5304.00
2019-02-09T09:45:04.342Z,5804.00
2019-02-09T09:46:04.322Z,5792.00
2019-02-09T09:47:04.307Z,5496.00
2019-02-09T09:48:04.312Z,4884.00
2019-02-09T09:49:04.256Z,4872.00
2019-02-09T09:50:04.262Z,4780.00
2019-02-09T09:51:04.238Z,4108.00
2019-02-09T09:52:04.200Z,3588.00
2019-02-09T09:53:04.193Z,3336.00
2019-02-09T09:54:04.156Z,2528.00
2019-02-09T09:55:04.147Z,2668.00
2019-02-09T09:56:04.104Z,2460.00
2019-02-09T09:57:04.092Z,1868.00
2019-02-09T09:58:04.062Z,2032.00
2019-02-09T09:59:04.057Z,3032.00
2019-02-09T10:00:04.029Z,3144.00
2019-02-09T10:01:04.017Z,3496.00
2019-02-09T10:02:03.993Z,3808.00
2019-02-09T10:03:03.964Z,3708.00
2019-02-09T10:04:03.949Z,4344.00
2019-02-09T10:05:03.912Z,5460.00
2019-02-09T10:06:03.887Z,4168.00
2019-02-09T10:07:03.886Z,2336.00
2019-02-09T10:08:03.844Z,3100.00
2019-02-09T10:09:03.829Z,2904.00
2019-02-09T10:10:03.821Z,2992.00
2019-02-09T10:11:03.781Z,3148.00
2019-02-09T10:12:03.749Z,3432.00
2019-02-09T10:13:03.725Z,2972.00
2019-02-09T10:14:08.710Z,2236.00
2019-02-09T10:15:03.690Z,2256.00
2019-02-09T10:16:03.668Z,3264.00
2019-02-09T10:17:03.631Z,2932.00
2019-02-09T10:18:03.650Z,3720.00
2019-02-09T10:19:03.601Z,4400.00
2019-02-09T10:20:03.576Z,5036.00
2019-02-09T10:21:03.547Z,4724.00
2019-02-09T10:22:03.526Z,4684.00
2019-02-09T10:23:03.516Z,5144.00
2019-02-09T10:24:03.505Z,5328.00
2019-02-09T10:25:03.467Z,4476.00
2019-02-09T10:26:03.465Z,4916.00
2019-02-09T10:27:03.439Z,4964.00
2019-02-09T10:28:03.420Z,4680.00
2019-02-09T10:29:03.399Z,4120.00
2019-02-09T10:30:03.371Z,3520.00
2019-02-09T10:31:03.341Z,3484.00
2019-02-09T10:32:03.354Z,4196.00
2019-02-09T10:33:03.303Z,3592.00
2019-02-09T10:34:03.295Z,2880.00
2019-02-09T10:35:03.249Z,2308.00
2019-02-09T10:36:03.215Z,2288.00
2019-02-09T10:37:03.198Z,3064.00
2019-02-09T10:38:03.206Z,3064.00
2019-02-09T10:39:03.177Z,3140.00
2019-02-09T10:40:03.136Z,2260.00
2019-02-09T10:41:03.111Z,2032.00
2019-02-09T10:42:03.098Z,2380.00
2019-02-09T10:43:03.076Z,2364.00
2019-02-09T10:44:03.062Z,2060.00
2019-02-09T10:45:03.022Z,2868.00
2019-02-09T10:46:03.017Z,2892.00
2019-02-09T10:47:02.986Z,1856.00
2019-02-09T10:48:02.985Z,1780.00
2019-02-09T10:49:02.941Z,1976.00
2019-02-09T10:50:02.919Z,1816.00
2019-02-09T10:51:02.906Z,1996.00
2019-02-09T10:52:02.870Z,2544.00
2019-02-09T10:53:02.860Z,3084.00
2019-02-09T10:54:02.837Z,3560.00
2019-02-09T10:55:02.825Z,2920.00
2019-02-09T10:56:02.789Z,1924.00
2019-02-09T10:57:02.770Z,1664.00
2019-02-09T10:58:02.743Z,1588.00
2019-02-09T10:59:02.728Z,1608.00
2019-02-09T11:00:02.720Z,1412.00
2019-02-09T11:01:02.679Z,2272.00
2019-02-09T11:02:02.675Z,3632.00
2019-02-09T11:03:02.639Z,3512.00
2019-02-09T11:04:02.617Z,3616.00
2019-02-09T11:05:02.587Z,3000.00
2019-02-09T11:06:02.706Z,3648.00
2019-02-09T11:07:02.610Z,4100.00
2019-02-09T11:08:02.520Z,4100.00
2019-02-09T11:09:02.566Z,3072.00
2019-02-09T11:10:02.473Z,2924.00
2019-02-09T11:11:02.456Z,3436.00
2019-02-09T11:12:02.886Z,4404.00
2019-02-09T11:13:02.702Z,3456.00
2019-02-09T11:14:02.398Z,4320.00
2019-02-09T11:15:02.366Z,3696.00
2019-02-09T11:16:02.354Z,3672.00
2019-02-09T11:17:02.321Z,4740.00
2019-02-09T11:18:02.305Z,5496.00
2019-02-09T11:19:02.275Z,4508.00
2019-02-09T11:20:02.266Z,5072.00
2019-02-09T11:21:02.253Z,5656.00
2019-02-09T11:22:02.205Z,3908.00
2019-02-09T11:23:02.214Z,3472.00
2019-02-09T11:24:02.208Z,4188.00
2019-02-09T11:25:02.147Z,3884.00
2019-02-09T11:26:02.131Z,3648.00
2019-02-09T11:27:02.119Z,3300.00
2019-02-09T11:28:02.095Z,3528.00
2019-02-09T11:29:02.080Z,3984.00
2019-02-09T11:30:02.037Z,3908.00
2019-02-09T11:31:02.014Z,2656.00
2019-02-09T11:32:02.007Z,2356.00
2019-02-09T11:33:02.700Z,2016.00
2019-02-09T11:34:01.961Z,2944.00
2019-02-09T11:35:01.940Z,2668.00
2019-02-09T11:36:01.913Z,2252.00
2019-02-09T11:37:01.889Z,2160.00
2019-02-09T11:38:01.868Z,2164.00
2019-02-09T11:39:01.871Z,2952.00
2019-02-09T11:40:01.845Z,2832.00
2019-02-09T11:41:01.797Z,2808.00
2019-02-09T11:42:01.779Z,3628.00
2019-02-09T11:43:01.778Z,2836.00
2019-02-09T11:44:01.727Z,2452.00
2019-02-09T11:45:01.711Z,1996.00
2019-02-09T11:46:01.702Z,2100.00
2019-02-09T11:47:01.666Z,2188.00
2019-02-09T11:48:01.665Z,1820.00
2019-02-09T11:49:01.659Z,1796.00
2019-02-09T11:50:01.612Z,1792.00
2019-02-09T11:51:01.598Z,1836.00
2019-02-09T11:52:01.559Z,1876.00
2019-02-09T11:53:02.063Z,2004.00
2019-02-09T11:54:01.512Z,2668.00
2019-02-09T11:55:01.496Z,3388.00
2019-02-09T11:56:01.503Z,2912.00
2019-02-09T11:57:01.444Z,3108.00
2019-02-09T11:58:01.429Z,2908.00
2019-02-09T11:59:01.419Z,3528.00
2019-02-09T12:00:01.382Z,4272.00
2019-02-09T12:01:01.352Z,3732.00
2019-02-09T12:02:01.337Z,3900.00
2019-02-09T12:03:05.509Z,2996.00
2019-02-09T12:04:01.295Z,2564.00
2019-02-09T12:05:01.276Z,3056.00
2019-02-09T12:06:01.246Z,4032.00
2019-02-09T12:07:01.233Z,3580.00
2019-02-09T12:08:01.206Z,3704.00
2019-02-09T12:09:01.179Z,3700.00
2019-02-09T12:10:01.183Z,3832.00
2019-02-09T12:11:01.157Z,4848.00
2019-02-09T12:12:01.139Z,4096.00
2019-02-09T12:13:01.094Z,3648.00
2019-02-09T12:14:01.115Z,3832.00
2019-02-09T12:15:01.055Z,3808.00
2019-02-09T12:16:01.040Z,3948.00
2019-02-09T12:17:01.022Z,4160.00
2019-02-09T12:18:01.056Z,3948.00
2019-02-09T12:19:00.981Z,3876.00
2019-02-09T12:20:00.957Z,3284.00
2019-02-09T12:21:00.928Z,2620.00
2019-02-09T12:22:00.917Z,2588.00
2019-02-09T12:23:00.881Z,2496.00
2019-02-09T12:24:00.866Z,2516.00
2019-02-09T12:25:00.836Z,2836.00
2019-02-09T12:26:00.820Z,2680.00
2019-02-09T12:27:00.790Z,2736.00
2019-02-09T12:28:00.778Z,3844.00
2019-02-09T12:29:00.746Z,3872.00
2019-02-09T12:30:00.723Z,3008.00
2019-02-09T12:31:00.722Z,3176.00
2019-02-09T12:32:00.693Z,2556.00
2019-02-09T12:33:00.663Z,2396.00
2019-02-09T12:34:00.648Z,2152.00
2019-02-09T12:35:00.634Z,1992.00
2019-02-09T12:36:00.596Z,1820.00
2019-02-09T12:37:00.580Z,1608.00
2019-02-09T12:38:00.547Z,1428.00
2019-02-09T12:39:00.537Z,1288.00
2019-02-09T12:40:00.514Z,1328.00
2019-02-09T12:41:00.517Z,1252.00
2019-02-09T12:42:00.486Z,1156.00
2019-02-09T12:43:00.455Z,1664.00
2019-02-09T12:44:00.453Z,1408.00
2019-02-09T12:45:00.400Z,1148.00
2019-02-09T12:46:00.403Z,1316.00
2019-02-09T12:47:00.363Z,1824.00
2019-02-09T12:48:00.364Z,2676.00
2019-02-09T12:49:00.339Z,4080.00